createdAt,value
2023-04-25T00:02:29.257Z,94361.00
2023-04-25T00:05:40.003Z,94356.59
2023-04-25T00:08:48.654Z,94355.72
2023-04-25T00:11:56.823Z,94351.50
2023-04-25T00:15:05.532Z,94352.94
2023-04-25T00:18:13.869Z,94343.31
2023-04-25T00:21:25.352Z,94346.78
2023-04-25T00:24:33.496Z,94343.28
2023-04-25T00:27:42.766Z,94342.78
2023-04-25T00:30:51.248Z,94355.81
2023-04-25T00:33:59.360Z,94346.50
2023-04-25T00:37:08.839Z,94358.53
2023-04-25T00:40:17.265Z,94339.97
2023-04-25T00:43:28.071Z,94352.72
2023-04-25T00:46:37.759Z,94347.94
2023-04-25T00:49:46.130Z,94343.97
2023-04-25T00:52:56.607Z,94339.72
2023-04-25T00:56:05.302Z,94339.53
2023-04-25T00:59:13.911Z,94337.16
2023-04-25T01:02:22.870Z,94328.16
2023-04-25T01:05:31.170Z,94331.06
2023-04-25T01:08:41.546Z,94330.56
2023-04-25T01:11:50.445Z,94330.09
2023-04-25T01:14:58.590Z,94338.13
2023-04-25T01:18:08.174Z,94337.44
2023-04-25T01:21:17.637Z,94331.66
2023-04-25T01:24:26.982Z,94330.88
2023-04-25T01:27:35.518Z,94332.88
2023-04-25T01:30:44.910Z,94324.84
2023-04-25T01:33:54.599Z,94315.09
2023-04-25T01:37:04.262Z,94319.78
2023-04-25T01:40:13.526Z,94319.25
2023-04-25T01:43:22.329Z,94320.81
2023-04-25T01:46:30.940Z,94325.88
2023-04-25T01:49:39.395Z,94315.28
2023-04-25T01:52:49.463Z,94318.44
2023-04-25T01:55:58.350Z,94316.47
2023-04-25T01:59:09.063Z,94314.44
2023-04-25T02:02:37.021Z,94316.84
2023-04-25T02:05:46.594Z,94318.84
2023-04-25T02:08:57.029Z,94317.09
2023-04-25T02:12:05.942Z,94322.59
2023-04-25T02:15:35.147Z,94318.41
2023-04-25T02:18:55.678Z,94321.75
2023-04-25T02:22:03.976Z,94312.69
2023-04-25T02:25:14.463Z,94319.53
2023-04-25T02:28:22.769Z,94323.03
2023-04-25T02:31:30.877Z,94311.44
2023-04-25T02:34:40.502Z,94312.97
2023-04-25T02:37:48.621Z,94308.91
2023-04-25T02:40:58.287Z,94313.66
2023-04-25T02:44:07.973Z,94312.41
2023-04-25T02:47:16.704Z,94307.91
2023-04-25T02:50:25.351Z,94303.38
2023-04-25T02:53:33.834Z,94297.47
2023-04-25T02:56:43.351Z,94294.19
2023-04-25T02:59:56.475Z,94300.00
2023-04-25T03:03:05.026Z,94297.97
2023-04-25T03:06:13.214Z,94301.88
2023-04-25T03:09:21.801Z,94301.63
2023-04-25T03:12:31.745Z,94299.34
2023-04-25T03:15:41.082Z,94297.31
2023-04-25T03:18:50.621Z,94288.88
2023-04-25T03:21:59.244Z,94298.56
2023-04-25T03:25:09.402Z,94302.25
2023-04-25T03:28:19.023Z,94318.88
2023-04-25T03:31:27.662Z,94323.34
2023-04-25T03:34:35.878Z,94325.41
2023-04-25T03:37:46.479Z,94329.50
2023-04-25T03:40:59.828Z,94329.78
2023-04-25T03:44:19.415Z,94320.16
2023-04-25T03:47:28.553Z,94325.84
2023-04-25T03:50:37.424Z,94325.44
2023-04-25T03:53:46.617Z,94310.22
2023-04-25T03:57:13.103Z,94318.63
2023-04-25T04:00:23.357Z,94312.47
2023-04-25T04:03:34.211Z,94314.78
2023-04-25T04:06:43.286Z,94310.44
2023-04-25T04:09:57.346Z,94312.34
2023-04-25T04:13:10.470Z,94303.53
2023-04-25T04:16:20.259Z,94294.16
2023-04-25T04:19:29.665Z,94295.91
2023-04-25T04:22:46.818Z,94291.16
2023-04-25T04:25:59.336Z,94289.69
2023-04-25T04:29:22.595Z,94288.00
2023-04-25T04:32:44.663Z,94285.84
2023-04-25T04:35:54.562Z,94284.94
2023-04-25T04:39:07.522Z,94278.91
2023-04-25T04:42:25.172Z,94297.16
2023-04-25T04:46:04.496Z,94298.59
2023-04-25T04:49:19.706Z,94314.91
2023-04-25T04:52:46.296Z,94335.22
2023-04-25T04:56:30.347Z,94322.31
2023-04-25T04:59:56.481Z,94311.38
2023-04-25T05:03:28.279Z,94289.47
2023-04-25T05:06:56.410Z,94291.78
2023-04-25T05:10:22.291Z,94285.41
2023-04-25T05:13:54.848Z,94284.09
2023-04-25T05:17:21.792Z,94278.34
2023-04-25T05:20:58.976Z,94271.84
2023-04-25T05:24:28.683Z,94276.13
2023-04-25T05:27:39.820Z,94280.75
2023-04-25T05:31:05.769Z,94280.81
2023-04-25T05:34:25.476Z,94281.47
2023-04-25T05:37:43.709Z,94272.41
2023-04-25T05:40:56.665Z,94277.38
2023-04-25T05:44:26.561Z,94279.13
2023-04-25T05:48:01.619Z,94283.69
2023-04-25T05:51:39.305Z,94287.38
2023-04-25T05:55:16.681Z,94281.69
2023-04-25T05:58:26.499Z,94290.22
2023-04-25T06:01:38.854Z,94295.06
2023-04-25T06:04:47.241Z,94278.19
2023-04-25T06:07:55.726Z,94276.00
2023-04-25T06:11:04.101Z,94282.09
2023-04-25T06:14:13.742Z,94287.75
2023-04-25T06:17:27.807Z,94282.44
2023-04-25T06:20:36.370Z,94275.53
2023-04-25T06:23:44.498Z,94278.38
2023-04-25T06:26:57.690Z,94282.72
2023-04-25T06:30:09.659Z,94276.34
2023-04-25T06:33:18.298Z,94275.25
2023-04-25T06:36:29.173Z,94272.66
2023-04-25T06:39:44.227Z,94278.63
2023-04-25T06:42:53.042Z,94278.03
2023-04-25T06:46:21.469Z,94276.28
2023-04-25T06:49:31.497Z,94274.00
2023-04-25T06:52:40.078Z,94277.66
2023-04-25T06:55:48.621Z,94275.69
2023-04-25T06:59:02.740Z,94280.94
2023-04-25T07:02:15.500Z,94275.56
2023-04-25T07:05:25.650Z,94277.88
2023-04-25T07:08:34.460Z,94285.44
2023-04-25T07:11:44.328Z,94276.50
2023-04-25T07:14:52.831Z,94285.44
2023-04-25T07:18:02.563Z,94289.09
2023-04-25T07:21:11.318Z,94286.91
2023-04-25T07:24:20.407Z,94279.09
2023-04-25T07:27:30.507Z,94282.22
2023-04-25T07:30:45.806Z,94287.91
2023-04-25T07:33:55.707Z,94280.56
2023-04-25T07:37:04.451Z,94285.22
2023-04-25T07:40:21.239Z,94273.09
2023-04-25T07:43:34.006Z,94279.75
2023-04-25T07:46:42.872Z,94279.41
2023-04-25T07:49:53.168Z,94275.34
2023-04-25T07:53:01.350Z,94271.53
2023-04-25T07:56:15.345Z,94268.13
2023-04-25T07:59:28.584Z,94262.69
2023-04-25T08:02:39.608Z,94268.59
2023-04-25T08:05:53.993Z,94272.09
2023-04-25T08:09:07.538Z,94276.97
2023-04-25T08:12:21.089Z,94262.75
2023-04-25T08:15:31.836Z,94265.47
2023-04-25T08:18:40.926Z,94264.78
2023-04-25T08:21:52.879Z,94258.91
2023-04-25T08:25:08.610Z,94266.06
2023-04-25T08:28:17.234Z,94263.03
2023-04-25T08:31:27.543Z,94268.03
2023-04-25T08:34:43.494Z,94261.47
2023-04-25T08:37:53.083Z,94263.50
2023-04-25T08:41:02.958Z,94253.25
2023-04-25T08:44:13.903Z,94251.19
2023-04-25T08:47:25.175Z,94263.97
2023-04-25T08:50:39.405Z,94253.34
2023-04-25T08:54:30.960Z,94249.97
2023-04-25T08:57:23.226Z,94269.06
2023-04-25T09:00:32.936Z,94272.47
2023-04-25T09:03:44.586Z,94270.97
2023-04-25T09:06:54.348Z,94282.81
2023-04-25T09:10:04.889Z,94271.41
2023-04-25T09:13:27.223Z,94280.59
2023-04-25T09:17:05.957Z,94278.22
2023-04-25T09:20:27.310Z,94280.69
2023-04-25T09:23:43.161Z,94269.09
2023-04-25T09:26:53.047Z,94283.03
2023-04-25T09:30:02.324Z,94283.16
2023-04-25T09:33:29.876Z,94274.91
2023-04-25T09:36:43.073Z,94283.25
2023-04-25T09:40:16.543Z,94282.88
2023-04-25T09:43:39.872Z,94283.09
2023-04-25T09:46:54.686Z,94284.66
2023-04-25T09:50:20.107Z,94299.44
2023-04-25T09:53:33.974Z,94309.69
2023-04-25T09:56:55.667Z,94308.16
2023-04-25T10:00:10.336Z,94302.56
2023-04-25T10:03:27.905Z,94307.00
2023-04-25T10:06:55.238Z,94300.44
2023-04-25T10:10:06.986Z,94294.59
2023-04-25T10:13:16.527Z,94286.66
2023-04-25T10:16:28.488Z,94288.19
2023-04-25T10:19:37.051Z,94279.41
2023-04-25T10:22:49.867Z,94273.72
2023-04-25T10:25:59.509Z,94267.94
2023-04-25T10:29:07.962Z,94273.16
2023-04-25T10:32:17.475Z,94279.06
2023-04-25T10:35:31.077Z,94274.97
2023-04-25T10:38:40.185Z,94276.13
2023-04-25T10:41:50.357Z,94281.31
2023-04-25T10:45:08.049Z,94282.13
2023-04-25T10:48:29.206Z,94283.00
2023-04-25T10:51:51.376Z,94277.31
2023-04-25T10:55:07.033Z,94273.81
2023-04-25T10:58:16.234Z,94279.94
2023-04-25T11:01:28.207Z,94277.53
2023-04-25T11:04:39.917Z,94278.72
2023-04-25T11:08:03.925Z,94292.38
2023-04-25T11:11:16.392Z,94291.88
2023-04-25T11:14:25.183Z,94303.78
2023-04-25T11:17:34.231Z,94315.59
2023-04-25T11:20:46.410Z,94327.50
2023-04-25T11:23:56.852Z,94339.09
2023-04-25T11:27:06.800Z,94360.38
2023-04-25T11:30:17.615Z,94381.00
2023-04-25T11:33:28.083Z,94390.41
2023-04-25T11:36:41.064Z,94388.41
2023-04-25T11:39:50.035Z,94410.06
2023-04-25T11:43:01.996Z,94418.91
2023-04-25T11:46:10.207Z,94418.19
2023-04-25T11:49:19.565Z,94429.34
2023-04-25T11:52:41.492Z,94438.38
2023-04-25T11:55:51.362Z,94437.75
2023-04-25T11:59:02.904Z,94435.69
2023-04-25T12:02:12.589Z,94440.41
2023-04-25T12:05:32.001Z,94434.03
2023-04-25T12:09:02.444Z,94439.66
2023-04-25T12:12:12.377Z,94437.22
2023-04-25T12:15:26.121Z,94434.81
2023-04-25T12:18:38.053Z,94436.72
2023-04-25T12:21:57.105Z,94426.50
2023-04-25T12:25:08.993Z,94422.19
2023-04-25T12:28:20.630Z,94423.25
2023-04-25T12:31:31.139Z,94422.28
2023-04-25T12:34:39.328Z,94423.31
2023-04-25T12:37:48.103Z,94417.31
2023-04-25T12:40:58.080Z,94419.75
2023-04-25T12:44:06.385Z,94417.13
2023-04-25T12:47:14.576Z,94416.47
2023-04-25T12:50:22.655Z,94415.28
2023-04-25T12:53:32.271Z,94403.75
2023-04-25T12:56:43.477Z,94417.31
2023-04-25T12:59:52.062Z,94415.41
2023-04-25T13:03:00.392Z,94415.69
2023-04-25T13:06:09.109Z,94427.25
2023-04-25T13:09:17.328Z,94416.94
2023-04-25T13:12:26.985Z,94430.16
2023-04-25T13:15:37.515Z,94431.50
2023-04-25T13:18:45.650Z,94431.88
2023-04-25T13:21:54.745Z,94444.25
2023-04-25T13:25:03.025Z,94446.78
2023-04-25T13:28:12.548Z,94444.66
2023-04-25T13:31:20.699Z,94454.25
2023-04-25T13:34:28.865Z,94449.03
2023-04-25T13:37:37.232Z,94456.75
2023-04-25T13:40:45.408Z,94461.06
2023-04-25T13:43:55.700Z,94459.66
2023-04-25T13:47:04.103Z,94454.31
2023-04-25T13:50:12.690Z,94457.41
2023-04-25T13:53:22.283Z,94454.78
2023-04-25T13:56:30.791Z,94467.19
2023-04-25T13:59:41.559Z,94466.53
2023-04-25T14:02:50.884Z,94467.38
2023-04-25T14:05:59.289Z,94472.41
2023-04-25T14:09:08.371Z,94481.63
2023-04-25T14:12:17.570Z,94484.75
2023-04-25T14:15:27.055Z,94489.25
2023-04-25T14:18:35.116Z,94494.50
2023-04-25T14:21:43.633Z,94499.28
2023-04-25T14:24:51.958Z,94509.66
2023-04-25T14:28:00.075Z,94516.50
2023-04-25T14:31:09.614Z,94517.34
2023-04-25T14:34:18.005Z,94526.84
2023-04-25T14:37:26.169Z,94520.28
2023-04-25T14:40:34.500Z,94518.59
2023-04-25T14:43:42.883Z,94519.78
2023-04-25T14:46:52.969Z,94520.28
2023-04-25T14:50:02.539Z,94530.56
2023-04-25T14:53:10.915Z,94536.25
2023-04-25T14:56:19.587Z,94537.44
2023-04-25T14:59:28.085Z,94533.63
2023-04-25T15:02:38.219Z,94530.31
2023-04-25T15:05:46.568Z,94524.38
2023-04-25T15:08:55.021Z,94522.59
2023-04-25T15:12:04.163Z,94528.03
2023-04-25T15:15:17.520Z,94528.72
2023-04-25T15:18:36.061Z,94526.84
2023-04-25T15:21:44.472Z,94540.59
2023-04-25T15:24:52.784Z,94530.13
2023-04-25T15:28:00.962Z,94529.91
2023-04-25T15:31:10.038Z,94540.28
2023-04-25T15:34:19.808Z,94541.19
2023-04-25T15:37:28.220Z,94542.53
2023-04-25T15:40:37.024Z,94545.34
2023-04-25T15:43:45.261Z,94549.59
2023-04-25T15:46:55.167Z,94544.06
2023-04-25T15:50:07.304Z,94550.19
2023-04-25T15:53:15.480Z,94557.97
2023-04-25T15:56:24.113Z,94565.28
2023-04-25T15:59:32.534Z,94571.75
2023-04-25T16:02:41.869Z,94573.06
2023-04-25T16:05:52.553Z,94576.63
2023-04-25T16:09:00.767Z,94577.88
2023-04-25T16:12:12.418Z,94575.69
2023-04-25T16:15:20.798Z,94573.06
2023-04-25T16:18:30.596Z,94581.97
2023-04-25T16:21:40.594Z,94584.69
2023-04-25T16:24:49.684Z,94581.94
2023-04-25T16:27:57.828Z,94590.84
2023-04-25T16:31:06.873Z,94585.88
2023-04-25T16:34:16.274Z,94587.97
2023-04-25T16:37:27.081Z,94585.50
2023-04-25T16:40:35.302Z,94597.47
2023-04-25T16:43:43.953Z,94596.69
2023-04-25T16:46:52.413Z,94602.38
2023-04-25T16:50:02.009Z,94601.94
2023-04-25T16:53:11.604Z,94609.75
2023-04-25T16:56:20.002Z,94608.34
2023-04-25T16:59:28.119Z,94616.06
2023-04-25T17:02:36.519Z,94620.94
2023-04-25T17:05:45.272Z,94628.34
2023-04-25T17:08:54.856Z,94628.19
2023-04-25T17:12:04.917Z,94627.25
2023-04-25T17:15:13.666Z,94626.50
2023-04-25T17:18:23.355Z,94635.47
2023-04-25T17:21:33.029Z,94637.28
2023-04-25T17:24:42.913Z,94641.81
2023-04-25T17:27:51.023Z,94653.81
2023-04-25T17:30:59.987Z,94655.06
2023-04-25T17:34:09.252Z,94648.13
2023-04-25T17:37:18.589Z,94660.56
2023-04-25T17:40:28.703Z,94651.16
2023-04-25T17:43:37.273Z,94668.75
2023-04-25T17:46:45.836Z,94666.72
2023-04-25T17:49:54.833Z,94674.94
2023-04-25T17:53:04.260Z,94678.94
2023-04-25T17:56:26.002Z,94677.50
2023-04-25T17:59:36.416Z,94680.88
2023-04-25T18:02:45.494Z,94691.59
2023-04-25T18:05:53.992Z,94688.19
2023-04-25T18:09:03.141Z,94691.84
2023-04-25T18:12:14.839Z,94695.44
2023-04-25T18:15:23.684Z,94699.16
2023-04-25T18:18:34.565Z,94709.28
2023-04-25T18:21:43.797Z,94707.19
2023-04-25T18:24:52.085Z,94712.50
2023-04-25T18:28:01.901Z,94719.34
2023-04-25T18:31:11.575Z,94715.31
2023-04-25T18:34:20.797Z,94721.25
2023-04-25T18:37:30.020Z,94722.34
2023-04-25T18:40:47.103Z,94734.94
2023-04-25T18:44:08.124Z,94738.59
2023-04-25T18:47:16.334Z,94742.22
2023-04-25T18:50:26.385Z,94755.66
2023-04-25T18:53:35.050Z,94771.25
2023-04-25T18:56:43.137Z,94785.38
2023-04-25T18:59:52.528Z,94781.19
2023-04-25T19:03:04.574Z,94789.19
2023-04-25T19:06:12.896Z,94790.97
2023-04-25T19:09:21.124Z,94787.00
2023-04-25T19:12:29.290Z,94789.50
2023-04-25T19:15:39.495Z,94798.53
2023-04-25T19:18:48.625Z,94799.75
2023-04-25T19:21:56.955Z,94794.84
2023-04-25T19:25:10.299Z,94803.97
2023-04-25T19:28:19.439Z,94804.13
2023-04-25T19:31:28.993Z,94809.91
2023-04-25T19:34:37.241Z,94811.03
2023-04-25T19:37:47.023Z,94806.66
2023-04-25T19:40:55.337Z,94797.91
2023-04-25T19:44:06.812Z,94806.16
2023-04-25T19:47:16.478Z,94802.72
2023-04-25T19:50:25.487Z,94805.16
2023-04-25T19:53:33.601Z,94799.88
2023-04-25T19:56:42.267Z,94809.09
2023-04-25T19:59:50.998Z,94808.13
2023-04-25T20:03:01.190Z,94816.88
2023-04-25T20:06:09.787Z,94810.47
2023-04-25T20:09:18.464Z,94809.19
2023-04-25T20:12:27.105Z,94810.81
2023-04-25T20:15:35.641Z,94812.81
2023-04-25T20:18:45.150Z,94809.41
2023-04-25T20:21:53.395Z,94814.38
2023-04-25T20:25:01.511Z,94816.66
2023-04-25T20:28:09.883Z,94816.31
2023-04-25T20:31:18.482Z,94816.06
2023-04-25T20:34:30.123Z,94814.72
2023-04-25T20:37:38.793Z,94808.47
2023-04-25T20:40:47.154Z,94805.50
2023-04-25T20:43:55.819Z,94799.97
2023-04-25T20:47:04.692Z,94805.66
2023-04-25T20:50:14.434Z,94807.66
2023-04-25T20:53:23.166Z,94809.63
2023-04-25T20:56:32.803Z,94809.31
2023-04-25T20:59:40.960Z,94811.53
2023-04-25T21:02:49.325Z,94825.03
2023-04-25T21:05:58.893Z,94834.59
2023-04-25T21:09:08.913Z,94827.50
2023-04-25T21:12:17.008Z,94827.63
2023-04-25T21:15:25.770Z,94824.00
2023-04-25T21:18:34.851Z,94815.81
2023-04-25T21:21:44.417Z,94810.22
2023-04-25T21:24:54.172Z,94822.41
2023-04-25T21:28:02.907Z,94812.22
2023-04-25T21:31:11.292Z,94818.47
2023-04-25T21:34:19.619Z,94814.59
2023-04-25T21:37:29.388Z,94811.03
2023-04-25T21:40:37.625Z,94815.16
2023-04-25T21:43:45.818Z,94819.81
2023-04-25T21:46:54.018Z,94818.19
2023-04-25T21:50:02.346Z,94824.13
2023-04-25T21:53:12.133Z,94824.72
2023-04-25T21:56:21.017Z,94830.81
2023-04-25T21:59:29.549Z,94826.00
2023-04-25T22:02:37.746Z,94824.25
2023-04-25T22:05:46.718Z,94821.44
2023-04-25T22:08:56.385Z,94815.22
2023-04-25T22:12:05.044Z,94817.25
2023-04-25T22:15:13.904Z,94817.81
2023-04-25T22:18:22.264Z,94824.88
2023-04-25T22:21:30.808Z,94832.47
2023-04-25T22:24:42.401Z,94838.09
2023-04-25T22:27:51.561Z,94843.19
2023-04-25T22:30:59.866Z,94838.72
2023-04-25T22:34:08.398Z,94844.31
2023-04-25T22:37:16.673Z,94845.09
2023-04-25T22:40:26.461Z,94846.56
2023-04-25T22:43:34.534Z,94849.81
2023-04-25T22:46:42.752Z,94855.41
2023-04-25T22:49:51.642Z,94849.16
2023-04-25T22:53:00.497Z,94853.59
2023-04-25T22:56:11.291Z,94853.28
2023-04-25T22:59:20.740Z,94850.63
2023-04-25T23:02:29.089Z,94848.03
2023-04-25T23:05:38.305Z,94864.69
2023-04-25T23:08:46.642Z,94861.56
2023-04-25T23:11:57.286Z,94853.00
2023-04-25T23:15:06.386Z,94857.28
2023-04-25T23:18:14.712Z,94865.69
2023-04-25T23:21:23.218Z,94862.06
2023-04-25T23:24:31.669Z,94862.38
2023-04-25T23:27:41.732Z,94857.44
2023-04-25T23:30:49.822Z,94851.34
2023-04-25T23:33:58.138Z,94856.91
2023-04-25T23:37:06.184Z,94848.03
2023-04-25T23:40:14.296Z,94857.59
2023-04-25T23:43:24.010Z,94867.00
2023-04-25T23:46:32.458Z,94862.69
2023-04-25T23:49:41.068Z,94851.81
2023-04-25T23:52:49.392Z,94846.38
2023-04-25T23:55:57.427Z,94860.13
2023-04-25T23:59:06.904Z,94866.38
